createdAt,value
2023-08-25T00:01:35.892Z,67.68
2023-08-25T00:04:03.020Z,67.75
2023-08-25T00:06:29.816Z,67.81
2023-08-25T00:08:56.636Z,67.79
2023-08-25T00:11:23.503Z,67.67
2023-08-25T00:13:50.381Z,67.73
2023-08-25T00:16:17.298Z,67.75
2023-08-25T00:18:48.496Z,68.17
2023-08-25T00:21:15.684Z,69.08
2023-08-25T00:23:42.575Z,68.58
2023-08-25T00:26:09.374Z,68.50
2023-08-25T00:28:36.697Z,68.49
2023-08-25T00:31:03.842Z,68.50
2023-08-25T00:33:30.765Z,68.53
2023-08-25T00:35:57.570Z,68.53
2023-08-25T00:38:28.656Z,68.71
2023-08-25T00:40:55.801Z,68.91
2023-08-25T00:43:22.601Z,68.73
2023-08-25T00:45:49.449Z,68.70
2023-08-25T00:48:16.419Z,68.56
2023-08-25T00:50:45.739Z,68.78
2023-08-25T00:53:13.617Z,68.79
2023-08-25T00:55:40.426Z,69.13
2023-08-25T00:58:08.545Z,69.05
2023-08-25T01:00:35.750Z,68.94
2023-08-25T01:03:03.598Z,69.02
2023-08-25T01:05:30.976Z,69.02
2023-08-25T01:07:58.175Z,69.18
2023-08-25T01:10:48.955Z,69.31
2023-08-25T01:13:24.607Z,69.42
2023-08-25T01:15:54.330Z,69.29
2023-08-25T01:18:28.173Z,69.21
2023-08-25T01:20:56.508Z,69.21
2023-08-25T01:23:29.399Z,69.16
2023-08-25T01:25:57.728Z,69.19
2023-08-25T01:28:26.678Z,69.66
2023-08-25T01:30:55.889Z,69.80
2023-08-25T01:33:27.734Z,69.66
2023-08-25T01:36:23.784Z,69.43
2023-08-25T01:39:07.490Z,69.44
2023-08-25T01:41:34.202Z,69.39
2023-08-25T01:44:04.346Z,69.44
2023-08-25T01:46:35.522Z,69.56
2023-08-25T01:49:04.437Z,69.83
2023-08-25T01:51:33.095Z,69.77
2023-08-25T01:54:00.075Z,69.79
2023-08-25T01:56:26.985Z,69.58
2023-08-25T01:58:53.928Z,69.72
2023-08-25T02:01:20.878Z,69.72
2023-08-25T02:03:47.869Z,69.79
2023-08-25T02:06:14.654Z,69.97
2023-08-25T02:08:42.937Z,69.99
2023-08-25T02:11:09.802Z,70.18
2023-08-25T02:13:36.508Z,70.08
2023-08-25T02:16:03.383Z,70.15
2023-08-25T02:18:30.535Z,70.15
2023-08-25T02:20:57.466Z,70.20
2023-08-25T02:23:26.262Z,70.26
2023-08-25T02:25:53.473Z,70.56
2023-08-25T02:28:21.441Z,70.51
2023-08-25T02:30:48.084Z,70.78
2023-08-25T02:33:17.192Z,70.59
2023-08-25T02:35:45.219Z,70.58
2023-08-25T02:38:12.091Z,70.59
2023-08-25T02:40:39.276Z,70.80
2023-08-25T02:43:07.701Z,70.86
2023-08-25T02:45:36.127Z,71.03
2023-08-25T02:48:03.520Z,71.20
2023-08-25T02:50:30.726Z,71.08
2023-08-25T02:52:57.507Z,71.06
2023-08-25T02:55:24.356Z,70.99
2023-08-25T02:57:52.311Z,70.93
2023-08-25T03:00:24.965Z,71.20
2023-08-25T03:02:53.326Z,71.20
2023-08-25T03:05:22.381Z,71.29
2023-08-25T03:07:54.056Z,71.54
2023-08-25T03:10:21.473Z,71.19
2023-08-25T03:12:48.657Z,71.54
2023-08-25T03:15:15.386Z,71.23
2023-08-25T03:17:42.700Z,71.43
2023-08-25T03:20:10.488Z,71.44
2023-08-25T03:22:37.864Z,71.64
2023-08-25T03:25:05.303Z,71.72
2023-08-25T03:27:35.129Z,71.90
2023-08-25T03:30:02.425Z,71.75
2023-08-25T03:32:29.800Z,71.79
2023-08-25T03:34:56.533Z,71.81
2023-08-25T03:37:25.420Z,71.94
2023-08-25T03:39:52.725Z,72.03
2023-08-25T03:42:20.060Z,72.31
2023-08-25T03:44:48.536Z,72.28
2023-08-25T03:47:15.288Z,72.14
2023-08-25T03:49:41.921Z,72.14
2023-08-25T03:52:09.750Z,71.93
2023-08-25T03:54:37.371Z,71.97
2023-08-25T03:57:07.906Z,72.09
2023-08-25T03:59:35.033Z,72.26
2023-08-25T04:02:04.340Z,72.44
2023-08-25T04:04:35.063Z,72.37
2023-08-25T04:07:01.972Z,72.36
2023-08-25T04:09:28.808Z,72.36
2023-08-25T04:11:58.220Z,72.42
2023-08-25T04:14:25.394Z,72.57
2023-08-25T04:16:52.166Z,72.62
2023-08-25T04:19:21.698Z,72.67
2023-08-25T04:21:49.044Z,72.77
2023-08-25T04:24:19.592Z,72.94
2023-08-25T04:26:46.463Z,72.79
2023-08-25T04:29:13.284Z,72.76
2023-08-25T04:31:41.050Z,73.03
2023-08-25T04:34:10.001Z,73.22
2023-08-25T04:36:37.961Z,73.28
2023-08-25T04:39:04.892Z,73.73
2023-08-25T04:41:32.090Z,73.82
2023-08-25T04:43:59.646Z,74.02
2023-08-25T04:46:30.416Z,74.19
2023-08-25T04:48:58.123Z,74.67
2023-08-25T04:51:25.381Z,74.62
2023-08-25T04:53:52.127Z,75.81
2023-08-25T04:56:19.360Z,75.89
2023-08-25T04:58:46.518Z,75.36
2023-08-25T05:01:14.656Z,75.33
2023-08-25T05:03:45.346Z,76.46
2023-08-25T05:06:12.770Z,76.48
2023-08-25T05:08:39.545Z,76.93
2023-08-25T05:11:07.922Z,77.11
2023-08-25T05:13:34.666Z,76.87
2023-08-25T05:16:03.453Z,76.97
2023-08-25T05:18:44.697Z,77.34
2023-08-25T05:21:12.689Z,77.65
2023-08-25T05:23:43.863Z,78.12
2023-08-25T05:26:10.626Z,78.76
2023-08-25T05:28:37.490Z,78.56
2023-08-25T05:31:04.431Z,78.47
2023-08-25T05:34:06.752Z,77.64
2023-08-25T05:36:37.146Z,77.20
2023-08-25T05:39:06.800Z,77.29
2023-08-25T05:41:33.891Z,77.33
2023-08-25T05:44:04.229Z,77.67
2023-08-25T05:46:32.872Z,77.40
2023-08-25T05:48:59.775Z,77.42
2023-08-25T05:51:26.808Z,77.02
2023-08-25T05:53:53.526Z,76.70
2023-08-25T05:56:20.330Z,76.70
2023-08-25T05:58:47.115Z,75.94
2023-08-25T06:01:15.144Z,75.70
2023-08-25T06:03:42.137Z,75.25
2023-08-25T06:06:08.870Z,74.80
2023-08-25T06:08:36.094Z,74.30
2023-08-25T06:11:03.219Z,73.93
2023-08-25T06:13:30.283Z,73.35
2023-08-25T06:15:57.133Z,72.98
2023-08-25T06:18:25.224Z,72.59
2023-08-25T06:20:53.299Z,72.38
2023-08-25T06:23:20.360Z,71.86
2023-08-25T06:25:47.454Z,70.97
2023-08-25T06:28:14.214Z,70.69
2023-08-25T06:30:42.438Z,70.67
2023-08-25T06:33:10.984Z,70.46
2023-08-25T06:35:40.796Z,70.56
2023-08-25T06:38:08.696Z,70.40
2023-08-25T06:40:35.743Z,69.20
2023-08-25T06:43:03.382Z,69.12
2023-08-25T06:45:31.097Z,68.80
2023-08-25T06:47:58.591Z,68.79
2023-08-25T06:50:26.144Z,68.24
2023-08-25T06:52:52.901Z,67.85
2023-08-25T06:55:20.046Z,67.60
2023-08-25T06:57:49.643Z,67.53
2023-08-25T07:00:18.285Z,66.75
2023-08-25T07:02:45.682Z,66.70
2023-08-25T07:05:13.800Z,66.59
2023-08-25T07:07:40.950Z,66.35
2023-08-25T07:10:08.316Z,65.72
2023-08-25T07:12:35.664Z,65.83
2023-08-25T07:15:03.042Z,64.31
2023-08-25T07:17:30.358Z,65.19
2023-08-25T07:19:57.106Z,65.29
2023-08-25T07:22:23.882Z,64.29
2023-08-25T07:24:53.750Z,63.16
2023-08-25T07:27:21.115Z,63.07
2023-08-25T07:29:48.632Z,63.83
2023-08-25T07:32:15.422Z,63.19
2023-08-25T07:34:46.040Z,62.37
2023-08-25T07:37:13.252Z,62.12
2023-08-25T07:39:41.339Z,62.44
2023-08-25T07:42:09.191Z,61.62
2023-08-25T07:44:38.171Z,61.63
2023-08-25T07:47:05.346Z,61.53
2023-08-25T07:49:32.757Z,60.40
2023-08-25T07:51:59.543Z,58.84
2023-08-25T07:54:27.757Z,59.38
2023-08-25T07:56:54.834Z,59.49
2023-08-25T07:59:22.161Z,58.76
2023-08-25T08:01:50.856Z,57.33
2023-08-25T08:04:17.800Z,58.72
2023-08-25T08:06:44.974Z,56.78
2023-08-25T08:09:11.932Z,56.22
2023-08-25T08:11:39.542Z,56.67
2023-08-25T08:14:06.270Z,57.05
2023-08-25T08:16:36.539Z,54.96
2023-08-25T08:19:05.726Z,54.42
2023-08-25T08:21:32.794Z,55.16
2023-08-25T08:24:00.507Z,53.33
2023-08-25T08:26:27.285Z,52.57
2023-08-25T08:28:54.091Z,52.23
2023-08-25T08:31:21.022Z,53.38
2023-08-25T08:33:48.286Z,52.07
2023-08-25T08:36:16.755Z,49.65
2023-08-25T08:38:43.558Z,48.91
2023-08-25T08:41:11.395Z,48.78
2023-08-25T08:43:42.035Z,48.39
2023-08-25T08:46:10.791Z,48.23
2023-08-25T08:48:38.234Z,46.74
2023-08-25T08:51:06.968Z,47.86
2023-08-25T08:53:33.778Z,48.35
2023-08-25T08:56:02.649Z,48.74
2023-08-25T08:58:29.860Z,48.40
2023-08-25T09:00:57.420Z,46.50
2023-08-25T09:03:30.809Z,47.81
2023-08-25T09:06:03.630Z,45.40
2023-08-25T09:08:36.297Z,46.13
2023-08-25T09:11:04.521Z,44.82
2023-08-25T09:13:36.108Z,44.77
2023-08-25T09:16:12.655Z,44.24
2023-08-25T09:18:46.331Z,42.87
2023-08-25T09:21:22.163Z,44.27
2023-08-25T09:24:00.731Z,43.78
2023-08-25T09:26:29.954Z,40.24
2023-08-25T09:28:58.997Z,42.70
2023-08-25T09:31:29.978Z,39.28
2023-08-25T09:34:15.925Z,39.64
2023-08-25T09:36:54.436Z,40.13
2023-08-25T09:39:22.480Z,40.81
2023-08-25T09:41:50.382Z,38.08
2023-08-25T09:44:17.493Z,38.93
2023-08-25T09:46:45.672Z,39.00
2023-08-25T09:49:14.578Z,38.14
2023-08-25T09:51:46.067Z,37.19
2023-08-25T09:54:16.309Z,37.19
2023-08-25T09:56:45.526Z,37.97
2023-08-25T09:59:13.928Z,37.15
2023-08-25T10:01:46.013Z,38.07
2023-08-25T10:04:17.400Z,38.06
2023-08-25T10:06:44.140Z,36.27
2023-08-25T10:09:11.414Z,36.07
2023-08-25T10:11:44.415Z,35.51
2023-08-25T10:14:14.073Z,35.97
2023-08-25T10:16:51.723Z,36.23
2023-08-25T10:19:27.067Z,34.83
2023-08-25T10:21:56.243Z,36.45
2023-08-25T10:24:24.109Z,35.06
2023-08-25T10:26:53.030Z,35.03
2023-08-25T10:29:21.820Z,35.30
2023-08-25T10:32:06.792Z,35.29
2023-08-25T10:34:43.465Z,33.91
2023-08-25T10:37:13.345Z,31.78
2023-08-25T10:40:06.908Z,33.36
2023-08-25T10:42:35.950Z,34.29
2023-08-25T10:45:09.502Z,33.20
2023-08-25T10:47:47.129Z,33.41
2023-08-25T10:50:19.616Z,31.08
2023-08-25T10:52:50.813Z,32.61
2023-08-25T10:55:30.191Z,32.92
2023-08-25T10:58:10.699Z,32.65
2023-08-25T11:00:43.814Z,31.16
2023-08-25T11:03:11.032Z,31.54
2023-08-25T11:05:40.296Z,31.64
2023-08-25T11:08:26.587Z,30.18
2023-08-25T11:11:19.905Z,30.92
2023-08-25T11:13:47.521Z,29.60
2023-08-25T11:16:14.635Z,30.99
2023-08-25T11:18:44.446Z,30.29
2023-08-25T11:21:11.511Z,28.83
2023-08-25T11:23:40.482Z,27.76
2023-08-25T11:26:09.160Z,27.50
2023-08-25T11:28:37.543Z,29.00
2023-08-25T11:31:04.934Z,27.55
2023-08-25T11:33:33.182Z,27.91
2023-08-25T11:36:01.035Z,27.70
2023-08-25T11:38:31.629Z,28.57
2023-08-25T11:40:58.467Z,28.77
2023-08-25T11:43:36.840Z,28.68
2023-08-25T11:46:07.415Z,29.24
2023-08-25T11:48:34.393Z,28.99
2023-08-25T11:51:01.676Z,29.05
2023-08-25T11:53:28.623Z,28.96
2023-08-25T11:56:06.147Z,28.66
2023-08-25T11:58:35.091Z,29.14
2023-08-25T12:01:07.703Z,28.95
2023-08-25T12:03:35.669Z,28.51
2023-08-25T12:06:10.217Z,28.56
2023-08-25T12:08:39.746Z,27.17
2023-08-25T12:11:08.911Z,26.97
2023-08-25T12:13:41.132Z,27.72
2023-08-25T12:16:07.892Z,27.13
2023-08-25T12:18:39.072Z,27.28
2023-08-25T12:21:07.501Z,27.40
2023-08-25T12:23:41.784Z,27.18
2023-08-25T12:26:12.970Z,27.13
2023-08-25T12:28:43.880Z,26.82
2023-08-25T12:31:10.746Z,25.88
2023-08-25T12:33:37.424Z,26.05
2023-08-25T12:36:04.581Z,25.89
2023-08-25T12:38:32.755Z,25.46
2023-08-25T12:41:00.049Z,24.00
2023-08-25T12:43:28.429Z,23.50
2023-08-25T12:45:55.379Z,22.45
2023-08-25T12:48:22.641Z,23.17
2023-08-25T12:50:49.440Z,24.35
2023-08-25T12:53:16.174Z,24.01
2023-08-25T12:55:44.587Z,23.83
2023-08-25T12:58:11.299Z,24.23
2023-08-25T13:00:38.159Z,24.37
2023-08-25T13:03:05.330Z,24.70
2023-08-25T13:05:32.371Z,24.45
2023-08-25T13:07:59.105Z,23.88
2023-08-25T13:10:27.541Z,23.98
2023-08-25T13:12:54.304Z,24.14
2023-08-25T13:15:21.175Z,24.04
2023-08-25T13:17:49.715Z,24.08
2023-08-25T13:20:16.476Z,23.63
2023-08-25T13:22:43.336Z,23.71
2023-08-25T13:25:10.132Z,23.17
2023-08-25T13:27:38.371Z,23.40
2023-08-25T13:30:10.068Z,23.61
2023-08-25T13:32:36.946Z,23.35
2023-08-25T13:35:05.118Z,23.13
2023-08-25T13:37:33.003Z,22.96
2023-08-25T13:40:00.165Z,23.23
2023-08-25T13:42:26.890Z,23.82
2023-08-25T13:44:53.631Z,23.97
2023-08-25T13:47:20.383Z,24.01
2023-08-25T13:49:47.166Z,24.13
2023-08-25T13:52:13.879Z,24.68
2023-08-25T13:54:41.645Z,24.81
2023-08-25T13:57:09.072Z,24.88
2023-08-25T13:59:38.174Z,25.21
2023-08-25T14:02:06.897Z,25.31
2023-08-25T14:04:33.611Z,25.59
2023-08-25T14:07:00.294Z,25.54
2023-08-25T14:09:27.088Z,25.92
2023-08-25T14:11:53.785Z,26.65
2023-08-25T14:14:20.627Z,27.21
2023-08-25T14:16:47.420Z,27.47
2023-08-25T14:19:14.227Z,27.66
2023-08-25T14:21:41.041Z,27.56
2023-08-25T14:24:07.788Z,27.70
2023-08-25T14:26:34.636Z,28.02
2023-08-25T14:29:03.496Z,28.03
2023-08-25T14:31:30.318Z,27.74
2023-08-25T14:33:57.049Z,27.38
2023-08-25T14:36:23.846Z,27.64
2023-08-25T14:38:50.566Z,27.66
2023-08-25T14:41:17.860Z,27.87
2023-08-25T14:43:45.685Z,27.64
2023-08-25T14:46:12.418Z,26.94
2023-08-25T14:48:39.854Z,27.22
2023-08-25T14:51:06.767Z,27.35
2023-08-25T14:53:33.600Z,27.91
2023-08-25T14:56:00.667Z,27.36
2023-08-25T14:58:27.469Z,27.46
2023-08-25T15:00:55.043Z,27.28
2023-08-25T15:03:22.441Z,27.28
2023-08-25T15:06:00.338Z,27.16
2023-08-25T15:08:30.984Z,26.93
2023-08-25T15:10:58.278Z,26.43
2023-08-25T15:13:25.444Z,26.04
2023-08-25T15:15:52.825Z,25.55
2023-08-25T15:18:19.966Z,25.17
2023-08-25T15:21:00.721Z,25.26
2023-08-25T15:23:28.046Z,25.26
2023-08-25T15:25:57.580Z,25.20
2023-08-25T15:28:28.770Z,25.58
2023-08-25T15:31:01.713Z,25.65
2023-08-25T15:33:29.511Z,26.13
2023-08-25T15:35:56.273Z,26.66
2023-08-25T15:38:24.118Z,27.40
2023-08-25T15:40:50.916Z,28.25
2023-08-25T15:43:17.715Z,29.23
2023-08-25T15:45:48.723Z,30.00
2023-08-25T15:48:16.299Z,30.60
2023-08-25T15:50:47.353Z,31.30
2023-08-25T15:53:16.559Z,31.84
2023-08-25T15:55:44.501Z,32.56
2023-08-25T15:58:11.307Z,33.44
2023-08-25T16:00:39.782Z,33.70
2023-08-25T16:03:06.747Z,34.84
2023-08-25T16:05:33.687Z,35.37
2023-08-25T16:08:00.435Z,36.05
2023-08-25T16:10:28.837Z,36.65
2023-08-25T16:12:57.493Z,37.32
2023-08-25T16:15:32.148Z,37.78
2023-08-25T16:17:59.499Z,38.25
2023-08-25T16:20:32.651Z,38.94
2023-08-25T16:22:59.561Z,39.13
2023-08-25T16:25:27.916Z,39.73
2023-08-25T16:27:54.754Z,39.96
2023-08-25T16:30:26.794Z,40.39
2023-08-25T16:32:53.742Z,40.99
2023-08-25T16:35:21.454Z,41.28
2023-08-25T16:37:48.342Z,41.68
2023-08-25T16:40:15.173Z,42.00
2023-08-25T16:42:42.143Z,42.12
2023-08-25T16:45:09.443Z,42.50
2023-08-25T16:47:37.275Z,42.83
2023-08-25T16:50:05.200Z,43.08
2023-08-25T16:52:32.353Z,43.57
2023-08-25T16:54:59.218Z,43.88
2023-08-25T16:57:25.971Z,44.29
2023-08-25T16:59:52.794Z,44.67
2023-08-25T17:02:19.488Z,45.08
2023-08-25T17:04:46.231Z,45.36
2023-08-25T17:07:15.666Z,45.62
2023-08-25T17:09:43.959Z,45.94
2023-08-25T17:12:10.689Z,46.11
2023-08-25T17:14:38.729Z,46.62
2023-08-25T17:17:06.252Z,46.92
2023-08-25T17:19:33.082Z,47.39
2023-08-25T17:21:59.909Z,47.64
2023-08-25T17:24:26.621Z,47.73
2023-08-25T17:26:53.488Z,47.80
2023-08-25T17:29:20.290Z,48.13
2023-08-25T17:31:47.509Z,48.58
2023-08-25T17:34:14.397Z,49.00
2023-08-25T17:36:41.182Z,49.53
2023-08-25T17:39:08.881Z,49.88
2023-08-25T17:41:35.806Z,50.22
2023-08-25T17:44:03.262Z,50.37
2023-08-25T17:46:30.337Z,50.61
2023-08-25T17:48:57.199Z,50.89
2023-08-25T17:51:24.088Z,50.86
2023-08-25T17:53:50.893Z,51.16
2023-08-25T17:56:17.630Z,51.84
2023-08-25T17:58:44.454Z,51.76
2023-08-25T18:01:11.376Z,51.95
2023-08-25T18:03:41.293Z,52.11
2023-08-25T18:06:08.258Z,52.30
2023-08-25T18:08:40.046Z,52.46
2023-08-25T18:11:07.579Z,52.69
2023-08-25T18:13:35.635Z,52.96
2023-08-25T18:16:06.200Z,53.07
2023-08-25T18:18:33.489Z,53.33
2023-08-25T18:21:03.232Z,53.50
2023-08-25T18:23:34.800Z,53.70
2023-08-25T18:26:01.797Z,53.88
2023-08-25T18:28:28.740Z,54.13
2023-08-25T18:31:01.162Z,54.38
2023-08-25T18:33:29.116Z,54.58
2023-08-25T18:35:57.352Z,54.64
2023-08-25T18:38:25.501Z,54.75
2023-08-25T18:40:52.428Z,54.90
2023-08-25T18:43:19.412Z,55.28
2023-08-25T18:45:54.113Z,55.72
2023-08-25T18:48:21.377Z,55.86
2023-08-25T18:50:48.410Z,56.18
2023-08-25T18:53:15.256Z,56.08
2023-08-25T18:55:47.961Z,56.16
2023-08-25T18:58:17.654Z,56.31
2023-08-25T19:00:46.614Z,56.56
2023-08-25T19:03:19.236Z,56.66
2023-08-25T19:05:46.952Z,56.93
2023-08-25T19:08:14.186Z,57.24
2023-08-25T19:10:41.179Z,57.53
2023-08-25T19:13:10.122Z,57.58
2023-08-25T19:15:36.952Z,57.64
2023-08-25T19:18:04.494Z,57.76
2023-08-25T19:20:31.395Z,57.74
2023-08-25T19:22:58.274Z,57.99
2023-08-25T19:25:25.352Z,58.14
2023-08-25T19:27:53.208Z,58.18
2023-08-25T19:30:20.045Z,58.53
2023-08-25T19:32:46.951Z,58.79
2023-08-25T19:35:15.295Z,58.88
2023-08-25T19:37:41.991Z,59.09
2023-08-25T19:40:10.727Z,59.05
2023-08-25T19:42:38.968Z,59.03
2023-08-25T19:45:07.927Z,59.14
2023-08-25T19:47:35.043Z,59.09
2023-08-25T19:50:02.023Z,59.17
2023-08-25T19:52:28.800Z,59.53
2023-08-25T19:54:57.009Z,59.88
2023-08-25T19:57:23.956Z,60.12
2023-08-25T19:59:50.832Z,60.10
2023-08-25T20:02:17.704Z,60.11
2023-08-25T20:04:47.461Z,60.14
2023-08-25T20:07:14.306Z,60.15
2023-08-25T20:09:41.074Z,60.17
2023-08-25T20:12:08.201Z,60.29
2023-08-25T20:14:36.880Z,60.46
2023-08-25T20:17:04.421Z,60.75
2023-08-25T20:19:31.259Z,61.07
2023-08-25T20:21:58.085Z,61.46
2023-08-25T20:24:24.890Z,61.51
2023-08-25T20:26:51.739Z,61.51
2023-08-25T20:29:18.639Z,61.39
2023-08-25T20:31:45.488Z,61.40
2023-08-25T20:34:12.298Z,61.43
2023-08-25T20:36:39.149Z,61.45
2023-08-25T20:39:06.101Z,61.60
2023-08-25T20:41:32.883Z,61.80
2023-08-25T20:43:59.639Z,62.04
2023-08-25T20:46:26.537Z,62.18
2023-08-25T20:48:53.409Z,62.07
2023-08-25T20:51:22.677Z,62.11
2023-08-25T20:53:50.939Z,61.98
2023-08-25T20:56:17.780Z,62.15
2023-08-25T20:58:45.189Z,62.31
2023-08-25T21:01:12.391Z,62.47
2023-08-25T21:03:39.977Z,62.73
2023-08-25T21:06:07.773Z,62.68
2023-08-25T21:08:37.461Z,62.83
2023-08-25T21:11:04.373Z,62.63
2023-08-25T21:13:31.273Z,62.66
2023-08-25T21:15:59.786Z,62.68
2023-08-25T21:18:26.681Z,62.74
2023-08-25T21:20:54.539Z,63.02
2023-08-25T21:23:23.029Z,63.17
2023-08-25T21:25:52.317Z,63.43
2023-08-25T21:28:23.223Z,63.52
2023-08-25T21:30:59.241Z,63.41
2023-08-25T21:33:27.578Z,63.53
2023-08-25T21:35:54.709Z,63.64
2023-08-25T21:38:21.547Z,63.53
2023-08-25T21:40:48.381Z,63.71
2023-08-25T21:43:16.077Z,63.88
2023-08-25T21:45:48.681Z,64.08
2023-08-25T21:48:15.737Z,64.18
2023-08-25T21:50:43.311Z,64.16
2023-08-25T21:53:10.315Z,64.19
2023-08-25T21:55:40.031Z,64.25
2023-08-25T21:58:07.216Z,64.25
2023-08-25T22:00:34.989Z,64.39
2023-08-25T22:03:02.372Z,64.51
2023-08-25T22:05:29.490Z,64.76
2023-08-25T22:07:56.619Z,64.85
2023-08-25T22:10:23.469Z,64.89
2023-08-25T22:12:52.791Z,64.79
2023-08-25T22:15:21.414Z,64.69
2023-08-25T22:17:48.228Z,64.68
2023-08-25T22:20:15.134Z,64.73
2023-08-25T22:22:41.898Z,65.00
2023-08-25T22:25:09.517Z,65.25
2023-08-25T22:27:37.355Z,65.40
2023-08-25T22:30:05.086Z,65.27
2023-08-25T22:35:03.364Z,65.23
2023-08-25T22:37:30.182Z,65.21
2023-08-25T22:39:57.011Z,65.29
2023-08-25T22:42:23.813Z,65.45
2023-08-25T22:44:51.009Z,65.69
2023-08-25T22:47:17.885Z,65.80
2023-08-25T22:49:44.610Z,65.81
2023-08-25T22:52:11.387Z,65.73
2023-08-25T22:54:38.162Z,65.74
2023-08-25T22:57:05.099Z,65.75
2023-08-25T22:59:31.791Z,65.87
2023-08-25T23:02:00.572Z,66.03
2023-08-25T23:04:28.254Z,66.05
2023-08-25T23:06:55.156Z,66.16
2023-08-25T23:09:22.068Z,66.23
2023-08-25T23:11:49.160Z,66.30
2023-08-25T23:14:15.859Z,66.12
2023-08-25T23:16:42.569Z,66.14
2023-08-25T23:19:09.493Z,66.30
2023-08-25T23:21:36.318Z,66.65
2023-08-25T23:24:03.619Z,66.61
2023-08-25T23:26:30.362Z,66.61
2023-08-25T23:28:57.160Z,66.69
2023-08-25T23:31:24.043Z,66.69
2023-08-25T23:33:50.990Z,66.78
2023-08-25T23:36:17.903Z,67.01
2023-08-25T23:38:44.711Z,67.12
2023-08-25T23:41:11.509Z,67.21
2023-08-25T23:43:38.404Z,67.16
2023-08-25T23:46:06.996Z,67.21
2023-08-25T23:48:34.437Z,67.20
2023-08-25T23:51:01.379Z,67.20
2023-08-25T23:53:28.620Z,67.25
2023-08-25T23:55:55.659Z,67.62
2023-08-25T23:58:22.528Z,67.61
